Time;durP1;ratioP1;P1;durP2;ratioP2;P2;SDS_P1;SDS_P2;PMS_P1;PMS_P2;Temp;Humidity;BMP_temperature;BMP_pressure;BME280_temperature;BME280_humidity;BME280_pressure;Samples;Min_cycle;Max_cycle;Signal;HPM_P1;HPM_P2
2022/04/14 00:00:14;;;;;;;17.05;6.25;;;10.10;99.90;;;;;;5056056;28;20052;-92
2022/04/14 00:02:40;;;;;;;20.52;7.68;;;11.60;99.90;;;;;;5055204;28;20031;-90
2022/04/14 00:05:06;;;;;;;16.30;7.57;;;11.60;99.90;;;;;;5038070;28;20025;-90
2022/04/14 00:07:32;;;;;;;15.18;7.70;;;11.40;99.90;;;;;;5055107;28;20029;-89
2022/04/14 00:10:01;;;;;;;21.98;8.55;;;15.30;99.90;;;;;;5038091;28;20070;-90
2022/04/14 00:12:27;;;;;;;18.15;8.23;;;;;;;;;;5056559;28;20059;-89
2022/04/14 00:14:52;;;;;;;20.02;9.10;;;11.60;99.90;;;;;;5038052;28;20222;-90
2022/04/14 00:17:18;;;;;;;18.92;8.48;;;11.40;99.90;;;;;;5055828;28;20028;-89
2022/04/14 00:19:44;;;;;;;23.63;8.95;;;11.50;99.90;;;;;;5036533;28;20105;-89
2022/04/14 00:22:09;;;;;;;21.85;7.57;;;11.50;99.90;;;;;;5017044;28;20028;-90
2022/04/14 00:24:35;;;;;;;18.95;7.32;;;14.00;99.90;;;;;;5018127;28;20028;-89
2022/04/14 00:27:01;;;;;;;23.13;9.63;;;11.60;99.90;;;;;;5017758;28;20060;-90
2022/04/14 00:29:26;;;;;;;20.30;8.90;;;12.30;99.90;;;;;;5018070;28;20033;-89
2022/04/14 00:31:52;;;;;;;17.52;8.88;;;11.50;99.90;;;;;;5035608;28;20018;-90
2022/04/14 00:34:17;;;;;;;19.77;9.23;;;14.00;99.90;;;;;;5036438;28;20021;-90
2022/04/14 00:36:43;;;;;;;20.10;9.68;;;11.20;99.90;;;;;;5037998;28;20084;-90
2022/04/14 00:39:09;;;;;;;19.45;9.10;;;11.50;99.90;;;;;;5036971;28;20052;-90
2022/04/14 00:41:39;;;;;;;19.90;9.13;;;13.50;99.90;;;;;;5055386;28;20025;-89
2022/04/14 00:44:05;;;;;;;24.23;8.82;;;11.40;99.90;;;;;;5037412;28;20017;-90
2022/04/14 00:46:34;;;;;;;22.30;9.13;;;11.40;99.90;;;;;;5054740;28;20104;-92
2022/04/14 00:49:00;;;;;;;21.13;8.80;;;10.40;99.90;;;;;;5054160;28;20478;-89
2022/04/14 00:51:26;;;;;;;22.58;8.93;;;;;;;;;;5037244;28;20056;-92
2022/04/14 00:53:52;;;;;;;23.17;9.98;;;;;;;;;;5037068;28;20021;-89
2022/04/14 00:56:18;;;;;;;23.63;9.60;;;11.30;99.90;;;;;;5039178;28;20035;-93
2022/04/14 00:58:44;;;;;;;18.20;8.70;;;14.20;99.90;;;;;;5060540;28;20028;-91
2022/04/14 01:01:12;;;;;;;18.23;8.35;;;11.20;99.90;;;;;;5061055;28;20009;-92
2022/04/14 01:03:40;;;;;;;19.77;8.45;;;8.00;99.90;;;;;;5061466;28;20017;-90
2022/04/14 01:06:06;;;;;;;17.33;8.43;;;11.30;99.90;;;;;;5061352;28;20043;-91
2022/04/14 01:08:33;;;;;;;20.27;8.10;;;10.90;99.90;;;;;;5044090;28;20029;-92
2022/04/14 01:11:00;;;;;;;20.67;8.07;;;14.70;99.90;;;;;;5037439;28;20017;-92
2022/04/14 01:13:28;;;;;;;21.33;8.57;;;14.40;99.90;;;;;;5054706;28;20109;-92
2022/04/14 01:15:59;;;;;;;18.80;7.68;;;10.70;99.90;;;;;;5036863;28;20436;-92
2022/04/14 01:18:26;;;;;;;15.48;7.20;;;10.70;99.90;;;;;;5054343;28;20029;-92
2022/04/14 01:20:53;;;;;;;16.70;6.90;;;11.00;99.90;;;;;;5052643;28;20037;-92
2022/04/14 01:23:24;;;;;;;24.13;9.05;;;10.70;99.90;;;;;;5053012;28;20492;-91
2022/04/14 01:25:50;;;;;;;17.88;8.32;;;10.50;99.90;;;;;;5054957;28;20017;-92
2022/04/14 01:28:17;;;;;;;19.02;8.95;;;9.70;99.90;;;;;;5036236;28;20106;-92
2022/04/14 01:30:43;;;;;;;25.45;9.35;;;11.60;99.90;;;;;;5036496;28;20048;-91
2022/04/14 01:33:09;;;;;;;20.42;7.53;;;14.50;99.90;;;;;;5038909;28;20024;-92
2022/04/14 01:35:35;;;;;;;17.80;7.85;;;10.60;99.90;;;;;;5040529;28;20120;-91
2022/04/14 01:38:01;;;;;;;18.77;8.27;;;10.80;99.90;;;;;;5040221;28;20028;-92
2022/04/14 01:40:28;;;;;;;21.52;7.93;;;13.70;99.90;;;;;;5040546;28;20025;-92
2022/04/14 01:42:54;;;;;;;19.55;7.72;;;10.90;99.90;;;;;;5040242;28;20029;-92
2022/04/14 01:45:20;;;;;;;23.17;9.50;;;;;;;;;;5041454;28;20025;-91
2022/04/14 01:47:47;;;;;;;18.85;8.35;;;10.40;99.90;;;;;;5051513;28;20021;-91
2022/04/14 01:50:14;;;;;;;17.05;7.88;;;12.70;99.90;;;;;;5057426;28;20025;-92
2022/04/14 01:52:42;;;;;;;15.75;6.95;;;13.90;99.90;;;;;;5074117;28;20021;-92
2022/04/14 01:55:08;;;;;;;17.77;7.95;;;10.10;99.90;;;;;;5046450;28;20025;-92
2022/04/14 01:57:34;;;;;;;19.02;7.93;;;10.00;99.90;;;;;;5040990;28;20025;-92
2022/04/14 02:00:00;;;;;;;21.85;7.43;;;;;;;;;;5058076;28;20013;-92
2022/04/14 02:02:26;;;;;;;19.10;7.90;;;;;;;;;;5040086;28;20025;-92
2022/04/14 02:04:53;;;;;;;20.40;8.57;;;10.00;99.90;;;;;;5040023;28;20078;-92
2022/04/14 02:07:19;;;;;;;24.00;10.27;;;10.00;99.90;;;;;;5040042;28;20032;-92
2022/04/14 02:09:45;;;;;;;23.40;8.95;;;12.90;99.90;;;;;;5040685;28;20385;-91
2022/04/14 02:12:12;;;;;;;24.45;9.07;;;;;;;;;;5056766;28;20398;-92
2022/04/14 02:14:39;;;;;;;24.63;8.27;;;9.80;99.90;;;;;;5039808;28;20021;-92
2022/04/14 02:17:05;;;;;;;17.73;7.65;;;;;;;;;;5056632;28;20025;-91
2022/04/14 02:19:31;;;;;;;19.65;8.93;;;9.70;99.90;;;;;;5040020;28;20028;-91
2022/04/14 02:22:00;;;;;;;16.30;7.40;;;12.50;99.90;;;;;;5060577;28;20044;-91
2022/04/14 02:24:26;;;;;;;17.45;7.95;;;9.30;99.90;;;;;;5043713;28;20131;-91
2022/04/14 02:26:57;;;;;;;19.80;7.93;;;9.50;99.90;;;;;;5059734;28;20020;-91
2022/04/14 02:29:26;;;;;;;17.35;7.47;;;;;;;;;;5042173;28;20091;-91
2022/04/14 02:31:57;;;;;;;;;;;9.50;99.90;;;;;;5047639;28;20078;-92
2022/04/14 02:34:26;;;;;;;15.75;6.88;;;9.20;99.90;;;;;;5046801;28;20342;-91
2022/04/14 02:36:54;;;;;;;15.68;7.30;;;12.00;99.90;;;;;;5064413;28;20040;-91
2022/04/14 02:39:20;;;;;;;15.60;7.72;;;9.20;99.90;;;;;;5045136;28;20036;-91
2022/04/14 02:41:48;;;;;;;19.45;8.23;;;;;;;;;;5047446;28;20025;-92
2022/04/14 02:44:16;;;;;;;18.73;7.40;;;;;;;;;;5048715;28;20078;-92
2022/04/14 02:46:42;;;;;;;21.45;8.52;;;9.20;99.90;;;;;;5047524;28;20021;-91
2022/04/14 02:49:08;;;;;;;21.23;8.02;;;12.80;99.90;;;;;;5045004;28;20112;-91
2022/04/14 02:51:37;;;;;;;13.88;6.60;;;10.10;99.90;;;;;;5051903;28;20381;-91
2022/04/14 02:54:03;;;;;;;18.95;7.63;;;;;;;;;;5074462;28;20048;-92
2022/04/14 02:56:29;;;;;;;17.95;6.93;;;9.20;99.90;;;;;;5074136;28;20033;-91
2022/04/14 02:58:54;;;;;;;18.15;7.70;;;13.30;99.90;;;;;;5047978;28;20025;-91
2022/04/14 03:01:20;;;;;;;17.17;7.68;;;12.50;99.90;;;;;;5045363;28;20021;-91
2022/04/14 03:03:45;;;;;;;24.58;8.20;;;8.90;99.90;;;;;;5042507;28;20116;-90
2022/04/14 03:06:11;;;;;;;19.27;6.90;;;10.70;99.90;;;;;;5042919;28;20363;-91
2022/04/14 03:08:37;;;;;;;16.15;6.82;;;9.20;99.90;;;;;;5041101;28;20028;-90
2022/04/14 03:11:03;;;;;;;20.38;7.15;;;10.00;99.90;;;;;;5040774;28;20386;-91
2022/04/14 03:13:31;;;;;;;17.73;7.60;;;9.80;99.90;;;;;;5059605;28;20413;-91
2022/04/14 03:15:57;;;;;;;19.50;7.55;;;11.90;99.90;;;;;;5040603;28;20363;-90
2022/04/14 03:18:22;;;;;;;17.00;8.15;;;9.00;99.90;;;;;;5039775;28;20025;-90
2022/04/14 03:20:48;;;;;;;15.25;7.55;;;9.30;99.90;;;;;;5040023;28;20025;-90
2022/04/14 03:23:14;;;;;;;14.98;6.72;;;6.20;99.90;;;;;;5057996;28;20533;-92
2022/04/14 03:25:39;;;;;;;16.90;7.20;;;8.70;99.90;;;;;;5058037;28;20017;-91
2022/04/14 03:28:05;;;;;;;14.95;6.72;;;10.10;99.90;;;;;;5040946;28;20017;-91
2022/04/14 03:30:31;;;;;;;16.58;6.47;;;8.80;99.90;;;;;;5040645;28;20052;-91
2022/04/14 03:32:57;;;;;;;17.00;7.68;;;8.80;99.90;;;;;;5039231;28;20569;-90
2022/04/14 03:35:22;;;;;;;19.50;7.43;;;9.80;99.90;;;;;;5040555;28;20397;-90
2022/04/14 03:37:48;;;;;;;17.92;7.35;;;11.80;99.90;;;;;;5052770;28;20100;-91
2022/04/14 03:40:14;;;;;;;18.67;7.75;;;8.40;99.90;;;;;;5062148;28;20080;-90
2022/04/14 03:42:39;;;;;;;17.30;7.22;;;8.20;99.90;;;;;;5062255;28;20036;-90
2022/04/14 03:45:06;;;;;;;17.73;7.13;;;8.20;99.90;;;;;;5063001;28;20005;-91
2022/04/14 03:47:32;;;;;;;18.38;7.03;;;6.80;99.90;;;;;;5079524;28;20005;-90
2022/04/14 03:49:57;;;;;;;12.73;6.97;;;10.30;99.90;;;;;;5070669;28;20027;-92
2022/04/14 03:52:23;;;;;;;15.63;7.68;;;8.30;99.90;;;;;;5049764;28;20025;-92
2022/04/14 03:54:49;;;;;;;14.98;6.80;;;8.30;99.90;;;;;;5047352;28;20067;-91
2022/04/14 03:57:17;;;;;;;15.18;7.15;;;8.20;99.90;;;;;;5045809;28;20533;-91
2022/04/14 03:59:43;;;;;;;14.38;7.20;;;12.10;99.90;;;;;;5044531;28;20021;-91
2022/04/14 04:02:09;;;;;;;16.90;6.53;;;10.00;99.90;;;;;;5044873;28;20032;-89
2022/04/14 04:04:34;;;;;;;18.00;7.80;;;5.30;99.90;;;;;;5044798;28;20036;-88
2022/04/14 04:07:00;;;;;;;16.58;7.43;;;8.80;99.90;;;;;;5063407;28;20023;-89
2022/04/14 04:09:26;;;;;;;16.58;7.43;;;9.60;99.90;;;;;;5043648;28;20021;-90
2022/04/14 04:11:53;;;;;;;16.00;7.03;;;8.20;99.90;;;;;;5043572;28;20025;-90
2022/04/14 04:14:19;;;;;;;14.93;6.60;;;8.20;99.90;;;;;;5059388;28;20017;-90
2022/04/14 04:16:45;;;;;;;16.90;6.63;;;7.90;99.90;;;;;;5066880;28;20021;-89
2022/04/14 04:19:11;;;;;;;13.70;6.22;;;11.30;99.90;;;;;;5041986;28;20035;-92
2022/04/14 04:21:36;;;;;;;16.58;6.55;;;10.90;99.90;;;;;;5042673;28;20045;-90
2022/04/14 04:24:02;;;;;;;16.27;6.53;;;7.00;99.90;;;;;;5042878;28;20111;-90
2022/04/14 04:26:28;;;;;;;18.13;7.13;;;8.00;99.90;;;;;;5042939;28;20020;-90
2022/04/14 04:28:53;;;;;;;15.00;6.90;;;6.40;99.90;;;;;;5041231;28;20028;-89
2022/04/14 04:31:28;;;;;;;16.38;8.05;;;11.10;99.90;;;;;;5041057;28;20101;-89
2022/04/14 04:33:54;;;;;;;20.20;8.02;;;7.80;99.90;;;;;;5043785;28;20025;-88
2022/04/14 04:36:22;;;;;;;16.83;7.95;;;10.50;99.90;;;;;;5061426;28;20040;-91
2022/04/14 04:38:54;;;;;;;17.08;7.93;;;8.60;99.90;;;;;;5042518;28;20021;-91
2022/04/14 04:41:25;;;;;;;16.67;8.05;;;8.30;99.90;;;;;;5058729;28;20158;-89
2022/04/14 04:43:50;;;;;;;16.02;6.97;;;8.10;99.90;;;;;;5041265;28;20017;-91
2022/04/14 04:46:16;;;;;;;15.18;7.10;;;9.50;99.90;;;;;;5042202;28;20035;-90
2022/04/14 04:51:34;;;;;;;14.60;6.43;;;5.80;99.90;;;;;;5044655;28;20094;-92
2022/04/14 04:53:59;;;;;;;15.50;7.40;;;9.20;99.90;;;;;;5061137;28;20025;-91
2022/04/14 04:56:26;;;;;;;13.43;7.20;;;7.30;99.90;;;;;;5040740;28;20025;-90
2022/04/14 04:58:58;;;;;;;14.73;7.72;;;7.60;99.90;;;;;;5059006;28;20466;-91
2022/04/14 05:01:24;;;;;;;15.40;7.57;;;8.00;99.90;;;;;;5041873;28;20032;-91
2022/04/14 05:03:50;;;;;;;13.02;6.35;;;8.10;99.90;;;;;;5042153;28;20021;-91
2022/04/14 05:06:21;;;;;;;19.25;8.13;;;7.60;99.90;;;;;;5043449;28;20013;-90
2022/04/14 05:12:29;;;;;;;15.95;7.70;;;8.10;99.90;;;;;;5064047;28;20047;-91
2022/04/14 05:15:01;;;;;;;21.45;8.30;;;7.50;99.90;;;;;;5062683;28;20021;-90
2022/04/14 05:22:07;;;;;;;17.83;8.48;;;7.70;99.90;;;;;;4987121;28;20053;-92
2022/04/14 05:28:05;;;;;;;17.85;7.40;;;5.20;99.90;;;;;;5047296;28;20561;-91
2022/04/14 05:30:44;;;;;;;18.25;8.52;;;7.80;99.90;;;;;;5044693;28;20044;-90
2022/04/14 05:33:15;;;;;;;23.38;9.40;;;8.40;99.90;;;;;;5023799;28;20104;-90
2022/04/14 05:35:44;;;;;;;20.45;8.90;;;9.00;99.90;;;;;;5040231;28;20025;-91
2022/04/14 05:38:10;;;;;;;22.17;9.50;;;8.70;99.90;;;;;;5038637;28;20025;-92
2022/04/14 05:40:41;;;;;;;20.60;9.02;;;8.60;99.90;;;;;;5038976;28;20029;-91
2022/04/14 05:43:22;;;;;;;22.08;8.85;;;9.00;99.90;;;;;;5039662;28;20021;-91
2022/04/14 05:45:48;;;;;;;18.33;8.45;;;9.00;99.90;;;;;;5017514;28;20136;-91
2022/04/14 05:48:15;;;;;;;22.08;10.50;;;7.80;99.90;;;;;;5037104;28;20036;-91
2022/04/14 05:51:13;;;;;;;22.45;9.70;;;9.00;99.90;;;;;;5036685;28;20029;-92
2022/04/14 05:53:44;;;;;;;26.00;9.85;;;5.90;99.90;;;;;;5037070;28;20093;-93
2022/04/14 05:56:10;;;;;;;17.73;8.15;;;9.50;99.90;;;;;;5036926;28;20029;-92
2022/04/14 05:58:38;;;;;;;28.20;10.82;;;10.20;99.90;;;;;;5036796;28;20032;-91
2022/04/14 06:01:03;;;;;;;21.95;10.02;;;10.20;99.90;;;;;;5037309;28;20055;-91
2022/04/14 06:03:29;;;;;;;26.92;10.52;;;9.60;99.90;;;;;;5036288;28;20048;-92
2022/04/14 06:05:55;;;;;;;20.27;9.10;;;9.60;99.90;;;;;;5054859;28;20021;-92
2022/04/14 06:08:20;;;;;;;20.85;9.75;;;10.00;99.90;;;;;;5036364;28;20025;-93
2022/04/14 06:10:46;;;;;;;22.52;9.40;;;12.70;99.90;;;;;;5036556;28;20029;-91
2022/04/14 06:13:12;;;;;;;19.75;9.48;;;13.50;99.90;;;;;;5054238;28;20028;-94
2022/04/14 06:15:37;;;;;;;23.65;10.65;;;12.30;99.90;;;;;;5036147;28;20049;-91
2022/04/14 06:18:03;;;;;;;22.67;9.75;;;11.20;99.90;;;;;;5038602;28;20451;-91
2022/04/14 06:20:29;;;;;;;17.98;8.43;;;10.60;99.90;;;;;;5045821;28;20017;-92
2022/04/14 06:22:57;;;;;;;21.20;10.15;;;10.30;99.90;;;;;;5070163;28;20032;-92
2022/04/14 06:25:22;;;;;;;24.17;10.45;;;10.60;99.90;;;;;;5060671;28;20049;-92
2022/04/14 06:27:49;;;;;;;22.35;9.40;;;14.60;99.90;;;;;;5080945;28;20064;-91
2022/04/14 06:30:16;;;;;;;21.73;8.82;;;10.90;99.90;;;;;;5063952;28;20013;-92
2022/04/14 06:32:42;;;;;;;23.73;9.52;;;9.80;99.90;;;;;;5064385;28;20033;-90
2022/04/14 06:35:15;;;;;;;24.45;10.30;;;11.20;99.90;;;;;;5063956;28;20016;-92
2022/04/14 06:37:40;;;;;;;17.15;8.80;;;11.30;99.90;;;;;;5047857;28;20032;-92
2022/04/14 06:40:07;;;;;;;14.93;8.05;;;11.40;99.90;;;;;;5042238;28;20021;-92
2022/04/14 06:42:32;;;;;;;19.27;7.72;;;11.50;99.90;;;;;;5041145;28;20017;-90
2022/04/14 06:44:59;;;;;;;17.80;7.85;;;13.20;99.90;;;;;;5040481;28;20434;-90
2022/04/14 06:47:26;;;;;;;15.18;6.68;;;14.90;99.90;;;;;;5040162;28;20040;-90
2022/04/14 06:49:51;;;;;;;17.35;6.78;;;11.70;99.90;;;;;;5039701;28;20013;-90
2022/04/14 06:52:17;;;;;;;15.55;6.45;;;15.10;99.90;;;;;;5057626;28;20025;-89
2022/04/14 06:54:43;;;;;;;16.55;6.20;;;13.90;99.90;;;;;;5039216;28;20390;-90
2022/04/14 06:57:09;;;;;;;16.83;6.93;;;15.00;99.90;;;;;;5057214;28;20024;-90
2022/04/14 06:59:35;;;;;;;14.20;5.97;;;13.00;99.90;;;;;;5038985;28;20021;-89
2022/04/14 07:02:01;;;;;;;12.77;5.93;;;13.30;99.90;;;;;;5039294;28;20420;-90
2022/04/14 07:04:27;;;;;;;14.40;5.78;;;14.80;99.90;;;;;;5040585;28;20059;-90
2022/04/14 07:06:54;;;;;;;18.40;7.13;;;11.50;99.90;;;;;;5039011;28;20028;-89
2022/04/14 07:09:20;;;;;;;18.55;7.18;;;13.20;99.90;;;;;;5039220;28;20143;-89
2022/04/14 07:11:45;;;;;;;18.63;6.50;;;12.40;99.90;;;;;;5039084;28;20024;-90
2022/04/14 07:14:11;;;;;;;13.63;6.40;;;11.20;99.90;;;;;;5038761;28;20029;-89
2022/04/14 07:16:37;;;;;;;15.20;7.20;;;15.30;99.90;;;;;;5038855;28;20501;-90
2022/04/14 07:19:02;;;;;;;15.68;6.55;;;12.90;99.90;;;;;;5038913;28;20033;-89
2022/04/14 07:21:28;;;;;;;18.10;7.57;;;12.90;99.90;;;;;;5066587;23;20436;-77
2022/04/14 07:23:53;;;;;;;17.70;7.65;;;13.10;99.90;;;;;;5037500;28;20063;-76
2022/04/14 07:26:19;;;;;;;13.07;6.45;;;13.20;99.90;;;;;;5055811;28;20366;-76
2022/04/14 07:28:44;;;;;;;15.70;6.45;;;13.30;99.90;;;;;;5055110;28;20393;-77
2022/04/14 07:31:10;;;;;;;15.45;6.22;;;13.30;99.90;;;;;;5037954;28;20033;-76
2022/04/14 07:33:36;;;;;;;15.27;6.32;;;13.20;99.90;;;;;;5055127;28;20020;-76
2022/04/14 07:36:02;;;;;;;13.98;6.47;;;13.20;99.90;;;;;;5055787;28;20139;-76
2022/04/14 07:38:28;;;;;;;15.68;5.75;;;13.10;99.90;;;;;;5055145;28;20108;-76
2022/04/14 07:40:56;;;;;;;17.13;7.43;;;13.00;99.90;;;;;;5054932;28;20048;-76
2022/04/14 07:43:22;;;;;;;17.52;6.70;;;13.00;99.90;;;;;;5054840;28;20017;-76
2022/04/14 07:45:47;;;;;;;18.05;7.38;;;13.10;99.90;;;;;;5055072;28;20580;-76
2022/04/14 07:48:14;;;;;;;15.75;5.93;;;13.20;99.90;;;;;;5054750;28;20113;-76
2022/04/14 07:50:39;;;;;;;13.52;6.72;;;13.40;99.90;;;;;;5054690;28;20112;-76
2022/04/14 07:53:05;;;;;;;22.67;7.75;;;13.50;99.90;;;;;;5036838;28;20029;-76
2022/04/14 07:55:33;;;;;;;17.75;6.43;;;13.70;99.90;;;;;;5036862;28;20040;-76
2022/04/14 07:58:07;;;;;;;12.83;6.23;;;13.70;99.90;;;;;;5054820;28;20028;-76
2022/04/14 08:00:33;;;;;;;17.90;7.38;;;13.80;99.90;;;;;;5054730;28;20267;-76
2022/04/14 08:03:02;;;;;;;17.90;7.30;;;13.80;99.90;;;;;;5054471;28;20386;-76
2022/04/14 08:05:29;;;;;;;15.55;6.65;;;13.90;99.90;;;;;;5036662;28;20075;-76
2022/04/14 08:07:56;;;;;;;16.98;6.15;;;14.30;99.90;;;;;;5054717;28;20489;-76
2022/04/14 08:10:21;;;;;;;9.38;4.93;;;13.90;99.90;;;;;;5054353;28;20090;-76
2022/04/14 08:12:47;;;;;;;14.38;5.38;;;14.40;99.90;;;;;;5036534;28;20075;-76
2022/04/14 08:15:14;;;;;;;11.43;5.35;;;14.20;99.90;;;;;;5054617;28;20111;-76
2022/04/14 08:17:41;;;;;;;19.08;6.43;;;14.40;99.90;;;;;;5036355;28;20029;-76
2022/04/14 08:20:08;;;;;;;13.73;5.72;;;14.40;99.90;;;;;;5054216;28;20031;-76
2022/04/14 08:22:51;;;;;;;12.00;4.72;;;14.60;99.90;;;;;;5053877;28;20048;-76
2022/04/14 08:25:20;;;;;;;10.35;5.70;;;14.70;99.90;;;;;;5037138;28;20067;-76
2022/04/14 08:27:47;;;;;;;10.50;4.22;;;14.70;99.90;;;;;;5036238;28;20032;-75
2022/04/14 08:30:14;;;;;;;10.85;5.68;;;14.80;99.90;;;;;;5036212;28;20036;-75
2022/04/14 08:32:40;;;;;;;14.98;5.70;;;14.90;99.90;;;;;;5036471;28;20142;-76
2022/04/14 08:35:07;;;;;;;13.35;5.85;;;15.00;99.90;;;;;;5053898;28;20053;-76
2022/04/14 08:37:33;;;;;;;7.93;4.68;;;15.10;99.90;;;;;;5053840;28;20036;-76
2022/04/14 08:39:59;;;;;;;8.13;4.22;;;15.10;99.90;;;;;;5053877;28;20024;-76
2022/04/14 08:42:30;;;;;;;13.38;5.18;;;15.20;99.90;;;;;;5053001;28;20033;-76
2022/04/14 08:45:01;;;;;;;8.27;4.05;;;15.40;99.90;;;;;;5054120;28;20066;-76
2022/04/14 08:47:29;;;;;;;11.05;4.57;;;15.60;99.90;;;;;;5053718;28;20075;-75
2022/04/14 08:49:56;;;;;;;11.50;4.30;;;15.70;99.90;;;;;;5036119;28;20537;-76
2022/04/14 08:52:22;;;;;;;11.75;4.45;;;15.70;99.90;;;;;;5035654;28;20055;-76
2022/04/14 08:54:49;;;;;;;10.93;5.18;;;15.80;99.90;;;;;;5035652;28;20059;-75
2022/04/14 08:57:16;;;;;;;14.32;5.07;;;15.90;99.90;;;;;;5036352;28;20051;-77
2022/04/14 08:59:45;;;;;;;10.70;4.90;;;15.70;99.90;;;;;;5053524;28;20025;-77
2022/04/14 09:02:17;;;;;;;7.97;3.83;;;15.70;99.90;;;;;;5035481;28;20020;-77
2022/04/14 09:04:43;;;;;;;10.13;3.88;;;15.90;99.90;;;;;;5053819;28;20500;-77
2022/04/14 09:07:10;;;;;;;7.63;3.63;;;15.90;99.90;;;;;;5053437;28;20013;-77
2022/04/14 09:09:36;;;;;;;8.50;3.97;;;16.10;99.90;;;;;;5053290;28;20053;-77
2022/04/14 09:12:02;;;;;;;7.78;3.78;;;16.10;99.90;;;;;;5053280;28;20086;-77
2022/04/14 09:14:29;;;;;;;6.20;3.50;;;16.20;99.90;;;;;;5053765;28;20378;-77
2022/04/14 09:16:55;;;;;;;8.00;3.42;;;16.40;99.90;;;;;;5053629;28;20102;-77
2022/04/14 09:19:20;;;;;;;10.82;4.35;;;16.50;99.90;;;;;;5053206;28;20056;-77
2022/04/14 09:22:07;;;;;;;7.68;3.90;;;17.10;99.90;;;;;;5053009;28;20025;-77
2022/04/14 09:24:49;;;;;;;8.02;3.40;;;16.70;99.90;;;;;;5053477;28;20423;-77
2022/04/14 09:27:31;;;;;;;10.48;3.10;;;16.80;99.90;;;;;;5053139;28;20204;-77
2022/04/14 09:30:03;;;;;;;8.82;3.40;;;16.70;99.90;;;;;;5053104;28;20021;-77
2022/04/14 09:32:45;;;;;;;6.20;3.28;;;16.80;99.90;;;;;;5053361;28;20055;-77
2022/04/14 09:35:22;;;;;;;5.97;2.45;;;17.00;99.90;;;;;;5053168;28;20504;-77
2022/04/14 09:38:02;;;;;;;7.88;3.13;;;17.10;99.90;;;;;;5053010;28;20017;-77
2022/04/14 09:40:34;;;;;;;8.73;3.25;;;17.20;99.90;;;;;;5035083;28;20056;-77
2022/04/14 09:43:00;;;;;;;11.93;3.10;;;17.20;99.90;;;;;;5053312;28;20024;-77
2022/04/14 09:45:28;;;;;;;9.20;3.42;;;17.30;99.90;;;;;;5035056;28;20021;-77
2022/04/14 09:48:01;;;;;;;6.03;2.30;;;17.30;99.90;;;;;;5053394;28;20021;-77
2022/04/14 09:50:35;;;;;;;6.00;2.60;;;17.40;99.90;;;;;;5052789;28;20255;-77
2022/04/14 09:53:07;;;;;;;9.38;3.38;;;17.50;99.90;;;;;;5053879;28;20154;-77
2022/04/14 09:55:36;;;;;;;5.60;2.72;;;17.50;99.90;;;;;;5039026;28;20044;-77
2022/04/14 09:58:17;;;;;;;9.48;3.05;;;17.50;99.90;;;;;;5038991;28;20028;-77
2022/04/14 10:00:47;;;;;;;7.32;2.50;;;17.80;99.90;;;;;;5056740;28;20029;-77
2022/04/14 10:03:15;;;;;;;7.18;2.92;;;17.80;99.90;;;;;;5056742;28;20032;-77
2022/04/14 10:05:41;;;;;;;6.80;2.80;;;17.80;99.90;;;;;;5056776;28;20013;-77
2022/04/14 10:08:08;;;;;;;8.93;3.13;;;18.00;99.90;;;;;;5038787;28;20036;-77
2022/04/14 10:10:36;;;;;;;6.35;3.25;;;18.40;99.90;;;;;;5057132;28;20052;-77
2022/04/14 10:13:05;;;;;;;5.60;2.47;;;18.30;99.90;;;;;;5038690;28;20031;-77
2022/04/14 10:15:31;;;;;;;6.88;3.20;;;18.50;99.90;;;;;;5038682;28;20100;-77
2022/04/14 10:17:58;;;;;;;6.75;2.13;;;18.60;99.90;;;;;;5038531;28;20135;-77
2022/04/14 10:20:25;;;;;;;13.20;2.67;;;18.80;99.90;;;;;;5056598;28;20474;-77
2022/04/14 10:22:50;;;;;;;7.00;2.10;;;18.80;99.90;;;;;;5056306;28;20045;-77
2022/04/14 10:25:17;;;;;;;5.40;1.65;;;18.80;99.90;;;;;;5056886;28;20588;-77
2022/04/14 10:27:43;;;;;;;5.85;2.28;;;18.90;99.90;;;;;;5038374;28;20482;-77
2022/04/14 10:30:09;;;;;;;5.43;1.92;;;18.70;99.90;;;;;;5056585;28;20055;-77
2022/04/14 10:32:34;;;;;;;7.53;2.28;;;18.70;99.90;;;;;;5056198;28;20099;-77
2022/04/14 10:35:02;;;;;;;7.22;3.08;;;18.70;99.90;;;;;;5056557;28;20497;-77
2022/04/14 10:37:33;;;;;;;3.85;1.25;;;18.80;99.90;;;;;;5056270;28;20386;-77
2022/04/14 10:39:59;;;;;;;6.18;2.58;;;18.80;99.90;;;;;;5056454;28;20017;-77
2022/04/14 10:42:29;;;;;;;8.35;1.70;;;18.90;99.90;;;;;;5056309;28;20032;-77
2022/04/14 10:44:55;;;;;;;5.50;1.67;;;19.20;99.90;;;;;;5056068;28;20100;-77
2022/04/14 10:47:54;;;;;;;1.77;0.32;;;19.50;99.90;;;;;;5056009;28;20366;-77
2022/04/14 10:50:33;;;;;;;2.40;0.63;;;19.70;99.40;;;;;;5038094;28;20509;-77
2022/04/14 10:53:12;;;;;;;4.72;1.30;;;19.80;99.90;;;;;;5038033;28;20119;-77
2022/04/14 10:55:46;;;;;;;2.05;0.60;;;19.90;97.60;;;;;;5055938;28;20017;-77
2022/04/14 10:58:26;;;;;;;3.42;1.08;;;19.60;98.60;;;;;;5055655;28;20029;-77
2022/04/14 11:00:52;;;;;;;2.88;1.08;;;19.60;99.50;;;;;;5037813;28;20439;-77
2022/04/14 11:03:18;;;;;;;4.45;1.17;;;19.70;99.90;;;;;;5037855;28;20044;-77
2022/04/14 11:05:46;;;;;;;6.47;1.70;;;19.70;99.50;;;;;;5037059;28;20024;-77
2022/04/14 11:08:30;;;;;;;1.13;0.77;;;20.00;99.90;;;;;;5037680;28;20077;-77
2022/04/14 11:11:05;;;;;;;4.03;1.50;;;20.10;98.70;;;;;;5055743;28;20025;-77
2022/04/14 11:13:52;;;;;;;2.25;0.90;;;19.80;96.20;;;;;;5056356;28;20033;-78
2022/04/14 11:16:47;;;;;;;5.32;1.30;;;19.70;98.60;;;;;;5056011;28;20094;-77
2022/04/14 11:19:24;;;;;;;3.80;0.88;;;19.60;99.60;;;;;;5038007;28;20024;-77
2022/04/14 11:22:01;;;;;;;2.65;1.23;;;19.60;99.50;;;;;;5038038;28;20035;-77
2022/04/14 11:24:36;;;;;;;1.83;0.80;;;19.70;99.90;;;;;;5055697;28;20104;-78
2022/04/14 11:27:18;;;;;;;4.18;1.33;;;19.50;99.30;;;;;;5055641;28;20017;-77
2022/04/14 11:29:46;;;;;;;4.03;1.60;;;19.50;99.90;;;;;;5037699;28;20021;-77
2022/04/14 11:32:13;;;;;;;3.22;0.95;;;19.50;99.90;;;;;;5055551;28;20032;-77
2022/04/14 11:34:40;;;;;;;2.92;1.20;;;19.80;99.90;;;;;;5037540;28;20029;-77
2022/04/14 11:37:38;;;;;;;2.55;0.65;;;20.20;99.90;;;;;;5055390;28;20017;-77
2022/04/14 11:40:10;;;;;;;;;;;20.20;96.60;;;;;;5055260;28;20037;-77
2022/04/14 11:42:36;;;;;;;2.05;0.80;;;20.40;96.70;;;;;;5054854;28;19912;-77
2022/04/14 11:45:02;;;;;;;3.42;0.80;;;20.70;94.20;;;;;;5054864;28;20474;-75
2022/04/14 11:47:28;;;;;;;4.13;0.93;;;20.80;90.70;;;;;;5054796;28;20159;-76
2022/04/14 11:49:54;;;;;;;3.03;0.68;;;20.70;91.50;;;;;;5054695;28;20028;-76
2022/04/14 11:52:23;;;;;;;3.50;0.88;;;20.50;88.90;;;;;;5054827;28;20047;-76
2022/04/14 11:54:49;;;;;;;3.92;0.98;;;20.50;93.50;;;;;;5054635;28;20025;-77
2022/04/14 11:57:20;;;;;;;4.18;0.98;;;20.90;94.60;;;;;;5055040;28;20040;-77
2022/04/14 11:59:47;;;;;;;2.05;0.52;;;21.00;90.70;;;;;;5055197;28;20021;-77
2022/04/14 12:02:21;;;;;;;3.85;1.00;;;20.90;90.00;;;;;;5054458;28;20494;-76
2022/04/14 12:04:48;;;;;;;2.92;1.02;;;20.60;91.40;;;;;;5054726;28;20032;-76
2022/04/14 12:07:14;;;;;;;1.60;0.82;;;20.20;89.70;;;;;;5036689;28;20013;-77
2022/04/14 12:09:41;;;;;;;2.38;0.77;;;20.00;91.20;;;;;;5036555;28;20390;-77
2022/04/14 12:12:16;;;;;;;2.58;1.25;;;19.80;93.20;;;;;;5054377;28;20024;-77
2022/04/14 12:14:43;;;;;;;1.98;1.10;;;19.90;96.50;;;;;;5054298;28;20570;-77
2022/04/14 12:17:09;;;;;;;2.50;1.40;;;20.40;98.40;;;;;;5053901;28;20443;-77
2022/04/14 12:19:46;;;;;;;3.85;1.48;;;20.90;92.90;;;;;;5053982;28;20017;-77
2022/04/14 12:22:13;;;;;;;2.35;1.10;;;21.40;91.50;;;;;;5035935;28;20567;-76
2022/04/14 12:24:45;;;;;;;3.85;1.45;;;21.70;83.30;;;;;;5054405;28;20021;-77
2022/04/14 12:27:22;;;;;;;3.22;1.20;;;21.70;87.00;;;;;;5054462;28;20379;-76
2022/04/14 12:29:49;;;;;;;3.53;1.65;;;22.10;85.80;;;;;;5054513;28;20101;-77
2022/04/14 12:32:16;;;;;;;4.13;2.03;;;22.60;85.40;;;;;;5053863;28;20033;-77
2022/04/14 12:34:45;;;;;;;2.78;1.45;;;22.50;81.00;;;;;;5054196;28;20108;-76
2022/04/14 12:37:13;;;;;;;3.13;1.80;;;22.10;78.60;;;;;;5053785;28;20023;-77
2022/04/14 12:39:59;;;;;;;6.18;2.60;;;21.60;80.60;;;;;;5053796;28;20025;-77
2022/04/14 12:42:33;;;;;;;2.78;2.00;;;21.00;81.70;;;;;;5035936;28;20071;-77
2022/04/14 12:45:16;;;;;;;4.53;2.55;;;21.00;84.10;;;;;;5054381;28;20021;-76
2022/04/14 12:47:47;;;;;;;2.25;1.70;;;21.40;84.70;;;;;;5053823;28;20032;-77
2022/04/14 12:50:18;;;;;;;1.92;1.60;;;21.80;79.30;;;;;;5053602;28;20453;-76
2022/04/14 12:52:54;;;;;;;2.97;1.65;;;21.70;78.00;;;;;;5035747;28;20510;-76
2022/04/14 12:55:27;;;;;;;3.60;2.10;;;21.40;74.20;;;;;;5035815;28;20062;-77
2022/04/14 12:58:13;;;;;;;3.72;1.80;;;21.20;77.30;;;;;;5053411;28;20032;-77
2022/04/14 13:00:39;;;;;;;4.22;1.65;;;21.20;79.60;;;;;;5053259;28;20029;-77
2022/04/14 13:03:13;;;;;;;1.92;0.80;;;21.20;72.80;;;;;;5035663;28;20071;-77
2022/04/14 13:05:40;;;;;;;3.15;1.55;;;21.00;75.90;;;;;;5054029;28;20083;-76